sensor_id;sensor_type;location;lat;lon;timestamp;P1;durP1;ratioP1;P2;durP2;ratioP2
23802;SDS011;12082;51.786;6.018;2024-03-17T00:02:22;13.70;;;6.20;;
23802;SDS011;12082;51.786;6.018;2024-03-17T00:04:48;10.07;;;5.37;;
23802;SDS011;12082;51.786;6.018;2024-03-17T00:07:14;7.43;;;5.57;;
23802;SDS011;12082;51.786;6.018;2024-03-17T00:09:40;13.13;;;6.27;;
23802;SDS011;12082;51.786;6.018;2024-03-17T00:12:06;11.87;;;5.67;;
23802;SDS011;12082;51.786;6.018;2024-03-17T00:14:33;8.70;;;5.80;;
23802;SDS011;12082;51.786;6.018;2024-03-17T00:17:02;15.57;;;6.70;;
23802;SDS011;12082;51.786;6.018;2024-03-17T00:19:28;10.63;;;6.10;;
23802;SDS011;12082;51.786;6.018;2024-03-17T00:21:54;11.87;;;6.53;;
23802;SDS011;12082;51.786;6.018;2024-03-17T00:24:20;12.53;;;6.83;;
23802;SDS011;12082;51.786;6.018;2024-03-17T00:26:46;14.00;;;6.87;;
23802;SDS011;12082;51.786;6.018;2024-03-17T00:29:12;12.53;;;6.60;;
23802;SDS011;12082;51.786;6.018;2024-03-17T00:31:39;11.03;;;6.53;;
23802;SDS011;12082;51.786;6.018;2024-03-17T00:34:05;15.33;;;6.60;;
23802;SDS011;12082;51.786;6.018;2024-03-17T00:36:31;12.20;;;6.47;;
23802;SDS011;12082;51.786;6.018;2024-03-17T00:38:58;12.27;;;6.10;;
23802;SDS011;12082;51.786;6.018;2024-03-17T00:41:25;8.13;;;6.20;;
23802;SDS011;12082;51.786;6.018;2024-03-17T00:43:51;15.43;;;5.67;;
23802;SDS011;12082;51.786;6.018;2024-03-17T00:46:18;10.63;;;6.13;;
23802;SDS011;12082;51.786;6.018;2024-03-17T00:48:46;9.07;;;4.97;;
23802;SDS011;12082;51.786;6.018;2024-03-17T00:51:12;7.43;;;4.53;;
23802;SDS011;12082;51.786;6.018;2024-03-17T00:53:38;9.23;;;4.93;;
23802;SDS011;12082;51.786;6.018;2024-03-17T00:56:04;15.67;;;5.07;;
23802;SDS011;12082;51.786;6.018;2024-03-17T00:58:31;12.07;;;4.60;;
23802;SDS011;12082;51.786;6.018;2024-03-17T01:00:57;6.47;;;4.37;;
23802;SDS011;12082;51.786;6.018;2024-03-17T01:03:23;8.10;;;4.70;;
23802;SDS011;12082;51.786;6.018;2024-03-17T01:05:49;10.47;;;4.90;;
23802;SDS011;12082;51.786;6.018;2024-03-17T01:08:17;11.83;;;5.77;;
23802;SDS011;12082;51.786;6.018;2024-03-17T01:10:44;10.83;;;5.70;;
23802;SDS011;12082;51.786;6.018;2024-03-17T01:13:10;9.47;;;6.90;;
23802;SDS011;12082;51.786;6.018;2024-03-17T01:15:36;17.30;;;7.10;;
23802;SDS011;12082;51.786;6.018;2024-03-17T01:18:03;11.77;;;7.47;;
23802;SDS011;12082;51.786;6.018;2024-03-17T01:20:29;12.33;;;7.60;;
23802;SDS011;12082;51.786;6.018;2024-03-17T01:22:55;9.97;;;6.67;;
23802;SDS011;12082;51.786;6.018;2024-03-17T01:25:21;10.37;;;6.13;;
23802;SDS011;12082;51.786;6.018;2024-03-17T01:27:47;15.40;;;7.30;;
23802;SDS011;12082;51.786;6.018;2024-03-17T01:30:13;11.57;;;6.07;;
23802;SDS011;12082;51.786;6.018;2024-03-17T01:32:39;14.53;;;7.57;;
23802;SDS011;12082;51.786;6.018;2024-03-17T01:35:05;9.60;;;6.70;;
23802;SDS011;12082;51.786;6.018;2024-03-17T01:37:32;9.50;;;6.90;;
23802;SDS011;12082;51.786;6.018;2024-03-17T01:39:58;11.30;;;7.10;;
23802;SDS011;12082;51.786;6.018;2024-03-17T01:42:24;13.80;;;6.80;;
23802;SDS011;12082;51.786;6.018;2024-03-17T01:44:50;11.17;;;6.30;;
23802;SDS011;12082;51.786;6.018;2024-03-17T01:47:17;12.10;;;7.50;;
23802;SDS011;12082;51.786;6.018;2024-03-17T01:49:44;11.67;;;7.53;;
23802;SDS011;12082;51.786;6.018;2024-03-17T01:52:10;13.43;;;7.73;;
23802;SDS011;12082;51.786;6.018;2024-03-17T01:54:36;15.20;;;8.07;;
23802;SDS011;12082;51.786;6.018;2024-03-17T01:57:03;14.70;;;9.37;;
23802;SDS011;12082;51.786;6.018;2024-03-17T01:59:29;15.43;;;8.20;;
23802;SDS011;12082;51.786;6.018;2024-03-17T02:01:55;13.40;;;8.83;;
23802;SDS011;12082;51.786;6.018;2024-03-17T02:04:22;9.67;;;7.07;;
23802;SDS011;12082;51.786;6.018;2024-03-17T02:06:48;14.10;;;7.60;;
23802;SDS011;12082;51.786;6.018;2024-03-17T02:09:14;14.90;;;8.93;;
23802;SDS011;12082;51.786;6.018;2024-03-17T02:11:40;14.40;;;9.27;;
23802;SDS011;12082;51.786;6.018;2024-03-17T02:14:07;14.23;;;9.17;;
23802;SDS011;12082;51.786;6.018;2024-03-17T02:16:33;22.13;;;11.10;;
23802;SDS011;12082;51.786;6.018;2024-03-17T02:18:59;15.07;;;9.53;;
23802;SDS011;12082;51.786;6.018;2024-03-17T02:21:25;21.13;;;11.50;;
23802;SDS011;12082;51.786;6.018;2024-03-17T02:23:55;18.27;;;10.60;;
23802;SDS011;12082;51.786;6.018;2024-03-17T02:26:21;16.57;;;10.90;;
23802;SDS011;12082;51.786;6.018;2024-03-17T02:28:48;19.30;;;11.07;;
23802;SDS011;12082;51.786;6.018;2024-03-17T02:31:14;21.10;;;11.73;;
23802;SDS011;12082;51.786;6.018;2024-03-17T02:33:42;16.33;;;10.17;;
23802;SDS011;12082;51.786;6.018;2024-03-17T02:36:08;15.53;;;10.47;;
23802;SDS011;12082;51.786;6.018;2024-03-17T02:38:36;15.00;;;9.23;;
23802;SDS011;12082;51.786;6.018;2024-03-17T02:41:21;16.20;;;8.73;;
23802;SDS011;12082;51.786;6.018;2024-03-17T02:43:48;13.03;;;9.07;;
23802;SDS011;12082;51.786;6.018;2024-03-17T02:46:15;13.40;;;8.10;;
23802;SDS011;12082;51.786;6.018;2024-03-17T02:48:43;13.87;;;8.60;;
23802;SDS011;12082;51.786;6.018;2024-03-17T02:51:16;13.40;;;7.97;;
23802;SDS011;12082;51.786;6.018;2024-03-17T02:53:46;11.77;;;7.67;;
23802;SDS011;12082;51.786;6.018;2024-03-17T02:56:12;11.67;;;8.73;;
23802;SDS011;12082;51.786;6.018;2024-03-17T02:58:41;12.97;;;9.00;;
23802;SDS011;12082;51.786;6.018;2024-03-17T03:01:07;14.53;;;8.77;;
23802;SDS011;12082;51.786;6.018;2024-03-17T03:03:35;16.93;;;9.20;;
23802;SDS011;12082;51.786;6.018;2024-03-17T03:06:01;16.43;;;10.70;;
23802;SDS011;12082;51.786;6.018;2024-03-17T03:08:33;18.37;;;10.47;;
23802;SDS011;12082;51.786;6.018;2024-03-17T03:10:59;21.30;;;10.90;;
23802;SDS011;12082;51.786;6.018;2024-03-17T03:13:25;21.87;;;11.27;;
23802;SDS011;12082;51.786;6.018;2024-03-17T03:15:51;21.50;;;11.70;;
23802;SDS011;12082;51.786;6.018;2024-03-17T03:18:18;19.53;;;12.10;;
23802;SDS011;12082;51.786;6.018;2024-03-17T03:20:49;22.33;;;12.40;;
23802;SDS011;12082;51.786;6.018;2024-03-17T03:23:15;20.97;;;13.73;;
23802;SDS011;12082;51.786;6.018;2024-03-17T03:25:41;18.43;;;11.50;;
23802;SDS011;12082;51.786;6.018;2024-03-17T03:28:07;20.40;;;12.50;;
23802;SDS011;12082;51.786;6.018;2024-03-17T03:30:37;20.97;;;12.13;;
23802;SDS011;12082;51.786;6.018;2024-03-17T03:33:04;20.87;;;11.53;;
23802;SDS011;12082;51.786;6.018;2024-03-17T03:35:30;19.60;;;10.90;;
23802;SDS011;12082;51.786;6.018;2024-03-17T03:37:56;17.40;;;11.73;;
23802;SDS011;12082;51.786;6.018;2024-03-17T03:40:22;18.83;;;11.70;;
23802;SDS011;12082;51.786;6.018;2024-03-17T03:42:50;22.37;;;12.50;;
23802;SDS011;12082;51.786;6.018;2024-03-17T03:45:16;18.57;;;11.73;;
23802;SDS011;12082;51.786;6.018;2024-03-17T03:47:42;17.03;;;11.03;;
23802;SDS011;12082;51.786;6.018;2024-03-17T03:50:11;17.33;;;11.00;;
23802;SDS011;12082;51.786;6.018;2024-03-17T03:52:38;19.20;;;11.43;;
23802;SDS011;12082;51.786;6.018;2024-03-17T03:55:07;16.17;;;11.13;;
23802;SDS011;12082;51.786;6.018;2024-03-17T03:57:36;17.43;;;11.03;;
23802;SDS011;12082;51.786;6.018;2024-03-17T04:00:02;21.70;;;11.23;;
23802;SDS011;12082;51.786;6.018;2024-03-17T04:02:37;18.00;;;11.70;;
23802;SDS011;12082;51.786;6.018;2024-03-17T04:05:03;23.17;;;12.47;;
23802;SDS011;12082;51.786;6.018;2024-03-17T04:07:29;21.87;;;12.87;;
23802;SDS011;12082;51.786;6.018;2024-03-17T04:09:55;24.63;;;12.57;;
23802;SDS011;12082;51.786;6.018;2024-03-17T04:12:21;18.93;;;12.60;;
23802;SDS011;12082;51.786;6.018;2024-03-17T04:14:47;19.03;;;13.57;;
23802;SDS011;12082;51.786;6.018;2024-03-17T04:17:17;23.37;;;13.00;;
23802;SDS011;12082;51.786;6.018;2024-03-17T04:19:44;20.70;;;12.33;;
23802;SDS011;12082;51.786;6.018;2024-03-17T04:22:10;19.23;;;12.10;;
23802;SDS011;12082;51.786;6.018;2024-03-17T04:24:36;20.63;;;12.00;;
23802;SDS011;12082;51.786;6.018;2024-03-17T04:27:02;21.13;;;12.00;;
23802;SDS011;12082;51.786;6.018;2024-03-17T04:29:29;21.93;;;12.07;;
23802;SDS011;12082;51.786;6.018;2024-03-17T04:31:55;22.97;;;12.20;;
23802;SDS011;12082;51.786;6.018;2024-03-17T04:34:21;24.83;;;12.30;;
23802;SDS011;12082;51.786;6.018;2024-03-17T04:36:47;18.30;;;11.97;;
23802;SDS011;12082;51.786;6.018;2024-03-17T04:39:14;18.87;;;11.70;;
23802;SDS011;12082;51.786;6.018;2024-03-17T04:41:40;24.37;;;11.43;;
23802;SDS011;12082;51.786;6.018;2024-03-17T04:44:08;16.93;;;10.90;;
23802;SDS011;12082;51.786;6.018;2024-03-17T04:46:34;19.60;;;10.97;;
23802;SDS011;12082;51.786;6.018;2024-03-17T04:49:00;21.93;;;12.43;;
23802;SDS011;12082;51.786;6.018;2024-03-17T04:51:28;23.03;;;12.13;;
23802;SDS011;12082;51.786;6.018;2024-03-17T04:53:54;25.40;;;11.47;;
23802;SDS011;12082;51.786;6.018;2024-03-17T04:56:20;15.90;;;11.00;;
23802;SDS011;12082;51.786;6.018;2024-03-17T04:58:46;17.00;;;10.93;;
23802;SDS011;12082;51.786;6.018;2024-03-17T05:01:12;20.13;;;10.83;;
23802;SDS011;12082;51.786;6.018;2024-03-17T05:03:38;16.03;;;9.97;;
23802;SDS011;12082;51.786;6.018;2024-03-17T05:06:05;17.33;;;11.30;;
23802;SDS011;12082;51.786;6.018;2024-03-17T05:08:32;16.93;;;10.50;;
23802;SDS011;12082;51.786;6.018;2024-03-17T05:10:59;24.37;;;12.03;;
23802;SDS011;12082;51.786;6.018;2024-03-17T05:13:26;21.33;;;11.37;;
23802;SDS011;12082;51.786;6.018;2024-03-17T05:15:52;18.93;;;11.53;;
23802;SDS011;12082;51.786;6.018;2024-03-17T05:18:18;16.00;;;10.60;;
23802;SDS011;12082;51.786;6.018;2024-03-17T05:20:45;18.87;;;11.60;;
23802;SDS011;12082;51.786;6.018;2024-03-17T05:23:12;25.10;;;11.33;;
23802;SDS011;12082;51.786;6.018;2024-03-17T05:25:39;23.77;;;11.30;;
23802;SDS011;12082;51.786;6.018;2024-03-17T05:28:05;19.10;;;10.27;;
23802;SDS011;12082;51.786;6.018;2024-03-17T05:30:31;15.60;;;9.40;;
23802;SDS011;12082;51.786;6.018;2024-03-17T05:32:56;15.83;;;10.77;;
23802;SDS011;12082;51.786;6.018;2024-03-17T05:35:22;16.80;;;10.80;;
23802;SDS011;12082;51.786;6.018;2024-03-17T05:37:50;17.47;;;9.93;;
23802;SDS011;12082;51.786;6.018;2024-03-17T05:40:16;14.77;;;10.40;;
23802;SDS011;12082;51.786;6.018;2024-03-17T05:42:42;15.67;;;9.67;;
23802;SDS011;12082;51.786;6.018;2024-03-17T05:45:11;18.63;;;10.60;;
23802;SDS011;12082;51.786;6.018;2024-03-17T05:47:37;16.37;;;10.20;;
23802;SDS011;12082;51.786;6.018;2024-03-17T05:50:04;21.07;;;9.90;;
23802;SDS011;12082;51.786;6.018;2024-03-17T05:52:30;21.03;;;10.77;;
23802;SDS011;12082;51.786;6.018;2024-03-17T05:54:56;14.60;;;10.13;;
23802;SDS011;12082;51.786;6.018;2024-03-17T05:57:22;19.97;;;10.23;;
23802;SDS011;12082;51.786;6.018;2024-03-17T05:59:49;17.93;;;10.70;;
23802;SDS011;12082;51.786;6.018;2024-03-17T06:02:15;16.93;;;9.40;;
23802;SDS011;12082;51.786;6.018;2024-03-17T06:04:41;16.50;;;9.57;;
23802;SDS011;12082;51.786;6.018;2024-03-17T06:07:07;14.67;;;9.37;;
23802;SDS011;12082;51.786;6.018;2024-03-17T06:09:33;13.67;;;8.73;;
23802;SDS011;12082;51.786;6.018;2024-03-17T06:11:59;13.87;;;9.60;;
23802;SDS011;12082;51.786;6.018;2024-03-17T06:14:25;17.57;;;9.73;;
23802;SDS011;12082;51.786;6.018;2024-03-17T06:16:51;16.20;;;9.73;;
23802;SDS011;12082;51.786;6.018;2024-03-17T06:19:17;13.57;;;9.30;;
23802;SDS011;12082;51.786;6.018;2024-03-17T06:21:43;15.80;;;9.40;;
23802;SDS011;12082;51.786;6.018;2024-03-17T06:24:09;12.67;;;8.73;;
23802;SDS011;12082;51.786;6.018;2024-03-17T06:26:35;13.87;;;8.70;;
23802;SDS011;12082;51.786;6.018;2024-03-17T06:29:01;16.47;;;9.13;;
23802;SDS011;12082;51.786;6.018;2024-03-17T06:31:27;20.87;;;9.73;;
23802;SDS011;12082;51.786;6.018;2024-03-17T06:33:53;12.57;;;8.57;;
23802;SDS011;12082;51.786;6.018;2024-03-17T06:36:19;13.47;;;7.60;;
23802;SDS011;12082;51.786;6.018;2024-03-17T06:38:45;17.83;;;9.60;;
23802;SDS011;12082;51.786;6.018;2024-03-17T06:41:11;12.43;;;8.90;;
23802;SDS011;12082;51.786;6.018;2024-03-17T06:43:40;14.20;;;9.07;;
23802;SDS011;12082;51.786;6.018;2024-03-17T06:46:09;10.93;;;8.20;;
23802;SDS011;12082;51.786;6.018;2024-03-17T06:48:36;16.17;;;8.17;;
23802;SDS011;12082;51.786;6.018;2024-03-17T06:51:02;14.67;;;8.30;;
23802;SDS011;12082;51.786;6.018;2024-03-17T06:53:28;14.57;;;8.37;;
23802;SDS011;12082;51.786;6.018;2024-03-17T06:55:54;9.73;;;7.20;;
23802;SDS011;12082;51.786;6.018;2024-03-17T06:58:21;15.60;;;8.37;;
23802;SDS011;12082;51.786;6.018;2024-03-17T07:03:20;12.70;;;7.60;;
23802;SDS011;12082;51.786;6.018;2024-03-17T07:05:55;12.37;;;7.53;;
23802;SDS011;12082;51.786;6.018;2024-03-17T07:08:22;13.30;;;7.73;;
23802;SDS011;12082;51.786;6.018;2024-03-17T07:11:02;11.80;;;7.20;;
23802;SDS011;12082;51.786;6.018;2024-03-17T07:13:32;17.33;;;7.07;;
23802;SDS011;12082;51.786;6.018;2024-03-17T07:16:01;9.80;;;6.80;;
23802;SDS011;12082;51.786;6.018;2024-03-17T07:18:28;9.93;;;6.73;;
23802;SDS011;12082;51.786;6.018;2024-03-17T07:21:01;10.37;;;6.03;;
23802;SDS011;12082;51.786;6.018;2024-03-17T07:23:29;10.53;;;6.87;;
23802;SDS011;12082;51.786;6.018;2024-03-17T07:25:56;9.67;;;6.63;;
23802;SDS011;12082;51.786;6.018;2024-03-17T07:28:22;9.63;;;6.53;;
23802;SDS011;12082;51.786;6.018;2024-03-17T07:30:56;12.40;;;6.63;;
23802;SDS011;12082;51.786;6.018;2024-03-17T07:33:22;9.97;;;6.27;;
23802;SDS011;12082;51.786;6.018;2024-03-17T07:35:49;8.33;;;5.50;;
23802;SDS011;12082;51.786;6.018;2024-03-17T07:38:15;8.00;;;6.23;;
23802;SDS011;12082;51.786;6.018;2024-03-17T07:40:41;12.37;;;6.53;;
23802;SDS011;12082;51.786;6.018;2024-03-17T07:43:08;8.73;;;5.63;;
23802;SDS011;12082;51.786;6.018;2024-03-17T07:45:34;10.47;;;5.00;;
23802;SDS011;12082;51.786;6.018;2024-03-17T07:48:00;9.97;;;5.37;;
23802;SDS011;12082;51.786;6.018;2024-03-17T07:50:26;8.40;;;5.40;;
23802;SDS011;12082;51.786;6.018;2024-03-17T07:52:52;9.60;;;5.13;;
23802;SDS011;12082;51.786;6.018;2024-03-17T07:55:18;10.10;;;5.30;;
23802;SDS011;12082;51.786;6.018;2024-03-17T07:57:44;6.40;;;5.10;;
23802;SDS011;12082;51.786;6.018;2024-03-17T08:00:10;7.10;;;4.53;;
23802;SDS011;12082;51.786;6.018;2024-03-17T08:02:46;8.37;;;5.43;;
23802;SDS011;12082;51.786;6.018;2024-03-17T08:05:12;8.37;;;5.80;;
23802;SDS011;12082;51.786;6.018;2024-03-17T08:07:38;13.33;;;4.93;;
23802;SDS011;12082;51.786;6.018;2024-03-17T08:10:04;5.47;;;4.63;;
23802;SDS011;12082;51.786;6.018;2024-03-17T08:12:30;7.43;;;5.10;;
23802;SDS011;12082;51.786;6.018;2024-03-17T08:14:56;7.63;;;5.40;;
23802;SDS011;12082;51.786;6.018;2024-03-17T08:17:24;16.33;;;4.90;;
23802;SDS011;12082;51.786;6.018;2024-03-17T08:19:50;11.60;;;5.37;;
23802;SDS011;12082;51.786;6.018;2024-03-17T08:22:16;7.73;;;4.67;;
23802;SDS011;12082;51.786;6.018;2024-03-17T08:24:42;8.53;;;5.13;;
23802;SDS011;12082;51.786;6.018;2024-03-17T08:27:08;8.37;;;5.47;;
23802;SDS011;12082;51.786;6.018;2024-03-17T08:29:34;8.90;;;5.73;;
23802;SDS011;12082;51.786;6.018;2024-03-17T08:32:00;7.70;;;5.03;;
23802;SDS011;12082;51.786;6.018;2024-03-17T08:34:26;9.30;;;5.07;;
23802;SDS011;12082;51.786;6.018;2024-03-17T08:36:52;10.60;;;5.70;;
23802;SDS011;12082;51.786;6.018;2024-03-17T08:39:18;8.83;;;5.60;;
23802;SDS011;12082;51.786;6.018;2024-03-17T08:41:44;8.70;;;5.33;;
23802;SDS011;12082;51.786;6.018;2024-03-17T08:44:10;8.67;;;4.83;;
23802;SDS011;12082;51.786;6.018;2024-03-17T08:46:36;6.50;;;5.03;;
23802;SDS011;12082;51.786;6.018;2024-03-17T08:49:02;8.93;;;5.40;;
23802;SDS011;12082;51.786;6.018;2024-03-17T08:51:29;7.30;;;4.93;;
23802;SDS011;12082;51.786;6.018;2024-03-17T08:53:56;5.80;;;4.27;;
23802;SDS011;12082;51.786;6.018;2024-03-17T08:56:22;8.33;;;5.37;;
23802;SDS011;12082;51.786;6.018;2024-03-17T08:58:48;7.83;;;4.70;;
23802;SDS011;12082;51.786;6.018;2024-03-17T09:01:14;7.43;;;4.60;;
23802;SDS011;12082;51.786;6.018;2024-03-17T09:03:44;6.63;;;4.77;;
23802;SDS011;12082;51.786;6.018;2024-03-17T09:06:16;9.03;;;5.60;;
23802;SDS011;12082;51.786;6.018;2024-03-17T09:08:44;6.57;;;5.43;;
23802;SDS011;12082;51.786;6.018;2024-03-17T09:11:13;6.83;;;4.60;;
23802;SDS011;12082;51.786;6.018;2024-03-17T09:13:39;9.03;;;5.10;;
23802;SDS011;12082;51.786;6.018;2024-03-17T09:16:05;10.43;;;5.10;;
23802;SDS011;12082;51.786;6.018;2024-03-17T09:18:34;6.23;;;4.77;;
23802;SDS011;12082;51.786;6.018;2024-03-17T09:23:29;6.63;;;4.77;;
23802;SDS011;12082;51.786;6.018;2024-03-17T09:25:59;9.37;;;4.67;;
23802;SDS011;12082;51.786;6.018;2024-03-17T09:28:26;7.17;;;4.63;;
23802;SDS011;12082;51.786;6.018;2024-03-17T09:30:53;9.57;;;4.90;;
23802;SDS011;12082;51.786;6.018;2024-03-17T09:33:20;6.37;;;4.70;;
23802;SDS011;12082;51.786;6.018;2024-03-17T09:35:59;5.43;;;4.37;;
23802;SDS011;12082;51.786;6.018;2024-03-17T09:38:25;6.93;;;4.27;;
23802;SDS011;12082;51.786;6.018;2024-03-17T09:40:51;7.37;;;4.23;;
23802;SDS011;12082;51.786;6.018;2024-03-17T09:43:21;6.83;;;4.50;;
23802;SDS011;12082;51.786;6.018;2024-03-17T09:45:48;7.77;;;4.20;;
23802;SDS011;12082;51.786;6.018;2024-03-17T09:48:15;5.37;;;4.23;;
23802;SDS011;12082;51.786;6.018;2024-03-17T09:51:06;7.80;;;4.37;;
23802;SDS011;12082;51.786;6.018;2024-03-17T09:53:34;7.53;;;4.40;;
23802;SDS011;12082;51.786;6.018;2024-03-17T09:56:06;5.93;;;4.53;;
23802;SDS011;12082;51.786;6.018;2024-03-17T09:58:34;6.60;;;5.00;;
23802;SDS011;12082;51.786;6.018;2024-03-17T10:01:00;8.33;;;4.63;;
23802;SDS011;12082;51.786;6.018;2024-03-17T10:06:13;7.30;;;5.20;;
23802;SDS011;12082;51.786;6.018;2024-03-17T10:08:44;6.97;;;5.07;;
23802;SDS011;12082;51.786;6.018;2024-03-17T10:11:10;7.47;;;5.03;;
23802;SDS011;12082;51.786;6.018;2024-03-17T10:13:37;8.23;;;4.90;;
23802;SDS011;12082;51.786;6.018;2024-03-17T10:16:03;6.77;;;4.90;;
23802;SDS011;12082;51.786;6.018;2024-03-17T10:18:29;5.23;;;4.37;;
23802;SDS011;12082;51.786;6.018;2024-03-17T10:20:56;6.57;;;4.70;;
23802;SDS011;12082;51.786;6.018;2024-03-17T10:23:23;6.33;;;4.97;;
23802;SDS011;12082;51.786;6.018;2024-03-17T10:25:49;6.00;;;4.93;;
23802;SDS011;12082;51.786;6.018;2024-03-17T10:28:17;5.17;;;4.67;;
23802;SDS011;12082;51.786;6.018;2024-03-17T10:30:58;8.37;;;4.63;;
23802;SDS011;12082;51.786;6.018;2024-03-17T10:33:25;7.93;;;5.23;;
23802;SDS011;12082;51.786;6.018;2024-03-17T10:35:53;9.60;;;4.87;;
23802;SDS011;12082;51.786;6.018;2024-03-17T10:38:25;6.13;;;4.80;;
23802;SDS011;12082;51.786;6.018;2024-03-17T10:40:52;8.57;;;5.23;;
23802;SDS011;12082;51.786;6.018;2024-03-17T10:43:18;8.17;;;5.00;;
23802;SDS011;12082;51.786;6.018;2024-03-17T10:45:50;6.43;;;5.03;;
23802;SDS011;12082;51.786;6.018;2024-03-17T10:48:16;13.80;;;5.20;;
23802;SDS011;12082;51.786;6.018;2024-03-17T10:50:46;12.80;;;5.40;;
23802;SDS011;12082;51.786;6.018;2024-03-17T10:53:13;7.10;;;5.17;;
23802;SDS011;12082;51.786;6.018;2024-03-17T10:55:45;10.43;;;4.43;;
23802;SDS011;12082;51.786;6.018;2024-03-17T10:58:28;9.20;;;5.33;;
23802;SDS011;12082;51.786;6.018;2024-03-17T11:00:57;7.43;;;5.27;;
23802;SDS011;12082;51.786;6.018;2024-03-17T11:03:24;11.30;;;5.40;;
23802;SDS011;12082;51.786;6.018;2024-03-17T11:05:50;9.07;;;5.70;;
23802;SDS011;12082;51.786;6.018;2024-03-17T11:08:16;9.93;;;5.37;;
23802;SDS011;12082;51.786;6.018;2024-03-17T11:10:49;8.27;;;5.67;;
23802;SDS011;12082;51.786;6.018;2024-03-17T11:15:50;5.63;;;4.33;;
23802;SDS011;12082;51.786;6.018;2024-03-17T11:23:40;8.47;;;5.20;;
23802;SDS011;12082;51.786;6.018;2024-03-17T11:26:06;6.60;;;5.00;;
23802;SDS011;12082;51.786;6.018;2024-03-17T11:34:02;7.07;;;4.70;;
23802;SDS011;12082;51.786;6.018;2024-03-17T11:38:59;8.40;;;5.20;;
23802;SDS011;12082;51.786;6.018;2024-03-17T11:46:45;7.70;;;5.13;;
23802;SDS011;12082;51.786;6.018;2024-03-17T11:49:21;8.43;;;5.20;;
23802;SDS011;12082;51.786;6.018;2024-03-17T11:51:47;6.50;;;5.10;;
23802;SDS011;12082;51.786;6.018;2024-03-17T11:54:17;7.10;;;5.60;;
23802;SDS011;12082;51.786;6.018;2024-03-17T11:56:50;7.43;;;5.20;;
23802;SDS011;12082;51.786;6.018;2024-03-17T11:59:16;14.93;;;5.57;;
23802;SDS011;12082;51.786;6.018;2024-03-17T12:01:46;10.80;;;5.47;;
23802;SDS011;12082;51.786;6.018;2024-03-17T12:04:15;9.07;;;5.70;;
23802;SDS011;12082;51.786;6.018;2024-03-17T12:06:45;11.23;;;5.70;;
23802;SDS011;12082;51.786;6.018;2024-03-17T12:09:28;8.17;;;5.50;;
23802;SDS011;12082;51.786;6.018;2024-03-17T12:14:51;7.13;;;4.80;;
23802;SDS011;12082;51.786;6.018;2024-03-17T12:17:21;9.87;;;5.83;;
23802;SDS011;12082;51.786;6.018;2024-03-17T12:19:47;10.47;;;5.97;;
23802;SDS011;12082;51.786;6.018;2024-03-17T12:22:17;7.80;;;5.10;;
23802;SDS011;12082;51.786;6.018;2024-03-17T12:24:46;8.03;;;5.83;;
23802;SDS011;12082;51.786;6.018;2024-03-17T12:27:16;7.93;;;5.30;;
23802;SDS011;12082;51.786;6.018;2024-03-17T12:29:43;9.80;;;5.77;;
23802;SDS011;12082;51.786;6.018;2024-03-17T12:32:12;11.53;;;5.47;;
23802;SDS011;12082;51.786;6.018;2024-03-17T12:34:39;8.53;;;4.97;;
23802;SDS011;12082;51.786;6.018;2024-03-17T12:37:06;7.67;;;5.37;;
23802;SDS011;12082;51.786;6.018;2024-03-17T12:39:33;8.10;;;5.80;;
23802;SDS011;12082;51.786;6.018;2024-03-17T12:44:39;8.30;;;5.07;;
23802;SDS011;12082;51.786;6.018;2024-03-17T12:47:08;5.47;;;4.60;;
23802;SDS011;12082;51.786;6.018;2024-03-17T12:49:43;10.50;;;5.67;;
23802;SDS011;12082;51.786;6.018;2024-03-17T12:52:15;8.70;;;5.27;;
23802;SDS011;12082;51.786;6.018;2024-03-17T12:54:42;7.03;;;5.03;;
23802;SDS011;12082;51.786;6.018;2024-03-17T12:57:15;7.00;;;5.30;;
23802;SDS011;12082;51.786;6.018;2024-03-17T12:59:59;11.57;;;5.40;;
23802;SDS011;12082;51.786;6.018;2024-03-17T13:02:44;9.20;;;5.63;;
23802;SDS011;12082;51.786;6.018;2024-03-17T13:05:19;7.93;;;5.60;;
23802;SDS011;12082;51.786;6.018;2024-03-17T13:07:46;7.90;;;5.00;;
23802;SDS011;12082;51.786;6.018;2024-03-17T13:10:18;9.60;;;5.30;;
23802;SDS011;12082;51.786;6.018;2024-03-17T13:12:45;8.53;;;6.07;;
23802;SDS011;12082;51.786;6.018;2024-03-17T13:15:12;7.67;;;5.37;;
23802;SDS011;12082;51.786;6.018;2024-03-17T13:17:39;8.13;;;5.37;;
23802;SDS011;12082;51.786;6.018;2024-03-17T13:20:06;6.90;;;6.03;;
23802;SDS011;12082;51.786;6.018;2024-03-17T13:22:37;10.63;;;5.53;;
23802;SDS011;12082;51.786;6.018;2024-03-17T13:25:05;6.77;;;5.03;;
23802;SDS011;12082;51.786;6.018;2024-03-17T13:27:31;8.90;;;5.20;;
23802;SDS011;12082;51.786;6.018;2024-03-17T13:29:57;12.37;;;5.73;;
23802;SDS011;12082;51.786;6.018;2024-03-17T13:32:23;7.70;;;5.70;;
23802;SDS011;12082;51.786;6.018;2024-03-17T13:34:49;6.30;;;5.17;;
23802;SDS011;12082;51.786;6.018;2024-03-17T13:37:16;11.43;;;5.50;;
23802;SDS011;12082;51.786;6.018;2024-03-17T13:39:42;9.30;;;5.50;;
23802;SDS011;12082;51.786;6.018;2024-03-17T13:42:08;10.03;;;5.50;;
23802;SDS011;12082;51.786;6.018;2024-03-17T13:44:34;13.27;;;5.90;;
23802;SDS011;12082;51.786;6.018;2024-03-17T13:47:00;10.23;;;5.60;;
23802;SDS011;12082;51.786;6.018;2024-03-17T13:49:29;15.60;;;9.27;;
23802;SDS011;12082;51.786;6.018;2024-03-17T13:51:55;9.00;;;5.67;;
23802;SDS011;12082;51.786;6.018;2024-03-17T13:54:21;7.60;;;5.10;;
23802;SDS011;12082;51.786;6.018;2024-03-17T13:56:48;12.23;;;5.80;;
23802;SDS011;12082;51.786;6.018;2024-03-17T13:59:17;9.80;;;5.80;;
23802;SDS011;12082;51.786;6.018;2024-03-17T14:01:43;10.03;;;6.17;;
23802;SDS011;12082;51.786;6.018;2024-03-17T14:04:12;10.33;;;5.90;;
23802;SDS011;12082;51.786;6.018;2024-03-17T14:06:45;10.77;;;5.87;;
23802;SDS011;12082;51.786;6.018;2024-03-17T14:09:12;8.87;;;6.50;;
23802;SDS011;12082;51.786;6.018;2024-03-17T14:11:38;7.47;;;5.70;;
23802;SDS011;12082;51.786;6.018;2024-03-17T14:14:07;9.23;;;5.63;;
23802;SDS011;12082;51.786;6.018;2024-03-17T14:16:33;9.17;;;6.30;;
23802;SDS011;12082;51.786;6.018;2024-03-17T14:19:00;13.70;;;5.87;;
23802;SDS011;12082;51.786;6.018;2024-03-17T14:21:27;9.47;;;5.77;;
23802;SDS011;12082;51.786;6.018;2024-03-17T14:23:53;9.37;;;6.07;;
23802;SDS011;12082;51.786;6.018;2024-03-17T14:26:19;6.43;;;4.70;;
23802;SDS011;12082;51.786;6.018;2024-03-17T14:28:46;7.63;;;5.73;;
23802;SDS011;12082;51.786;6.018;2024-03-17T14:31:12;7.03;;;5.77;;
23802;SDS011;12082;51.786;6.018;2024-03-17T14:33:38;8.03;;;5.73;;
23802;SDS011;12082;51.786;6.018;2024-03-17T14:36:05;8.30;;;5.90;;
23802;SDS011;12082;51.786;6.018;2024-03-17T14:38:31;8.20;;;5.33;;
23802;SDS011;12082;51.786;6.018;2024-03-17T14:40:57;8.60;;;5.53;;
23802;SDS011;12082;51.786;6.018;2024-03-17T14:43:23;9.27;;;5.60;;
23802;SDS011;12082;51.786;6.018;2024-03-17T14:45:50;11.40;;;5.60;;
23802;SDS011;12082;51.786;6.018;2024-03-17T14:48:16;10.20;;;5.93;;
23802;SDS011;12082;51.786;6.018;2024-03-17T14:50:42;11.63;;;6.17;;
23802;SDS011;12082;51.786;6.018;2024-03-17T14:53:08;11.77;;;5.43;;
23802;SDS011;12082;51.786;6.018;2024-03-17T14:55:34;8.73;;;5.57;;
23802;SDS011;12082;51.786;6.018;2024-03-17T14:58:00;8.13;;;4.77;;
23802;SDS011;12082;51.786;6.018;2024-03-17T15:00:27;7.30;;;4.73;;
23802;SDS011;12082;51.786;6.018;2024-03-17T15:02:55;10.50;;;5.80;;
23802;SDS011;12082;51.786;6.018;2024-03-17T15:05:21;7.37;;;5.53;;
23802;SDS011;12082;51.786;6.018;2024-03-17T15:07:49;9.37;;;5.90;;
23802;SDS011;12082;51.786;6.018;2024-03-17T15:10:15;10.50;;;4.90;;
23802;SDS011;12082;51.786;6.018;2024-03-17T15:12:45;8.27;;;5.30;;
23802;SDS011;12082;51.786;6.018;2024-03-17T15:15:11;8.10;;;5.50;;